createdAt,value
2022-09-26T00:01:15.073Z,10.90
2022-09-26T00:05:18.255Z,10.95
2022-09-26T00:09:21.987Z,11.02
2022-09-26T00:13:24.775Z,11.05
2022-09-26T00:17:29.327Z,11.12
2022-09-26T00:21:32.803Z,11.12
2022-09-26T00:25:35.748Z,11.15
2022-09-26T00:29:38.664Z,11.17
2022-09-26T00:33:43.196Z,11.19
2022-09-26T00:37:46.130Z,11.22
2022-09-26T00:41:49.068Z,11.22
2022-09-26T00:45:52.175Z,11.23
2022-09-26T00:49:59.859Z,11.23
2022-09-26T00:54:03.380Z,11.26
2022-09-26T00:58:11.821Z,11.30
2022-09-26T01:02:15.742Z,11.25
2022-09-26T01:06:21.537Z,11.23
2022-09-26T01:10:24.996Z,11.21
2022-09-26T01:14:28.981Z,11.22
2022-09-26T01:18:32.557Z,11.21
2022-09-26T01:23:03.534Z,11.24
2022-09-26T01:27:30.189Z,11.24
2022-09-26T01:31:43.673Z,11.25
2022-09-26T01:35:59.731Z,11.25
2022-09-26T01:40:11.754Z,11.25
2022-09-26T01:44:27.634Z,11.24
2022-09-26T01:48:37.706Z,11.26
2022-09-26T01:52:46.766Z,11.27
2022-09-26T01:56:52.167Z,11.28
2022-09-26T02:00:59.547Z,11.27
2022-09-26T02:05:08.894Z,11.28
2022-09-26T02:09:15.248Z,11.30
2022-09-26T02:13:22.538Z,11.28
2022-09-26T02:17:30.170Z,11.29
2022-09-26T02:21:34.366Z,11.30
2022-09-26T02:25:37.714Z,11.32
2022-09-26T02:29:40.904Z,11.35
2022-09-26T02:33:44.045Z,11.33
2022-09-26T02:37:48.300Z,11.33
2022-09-26T02:41:58.430Z,11.34
2022-09-26T02:46:16.014Z,11.32
2022-09-26T02:50:29.269Z,11.33
2022-09-26T02:54:44.302Z,11.32
2022-09-26T02:58:59.883Z,11.32
2022-09-26T03:03:08.892Z,11.33
2022-09-26T03:07:15.993Z,11.36
2022-09-26T03:11:24.288Z,11.36
2022-09-26T03:15:29.542Z,11.38
2022-09-26T03:19:39.388Z,11.37
2022-09-26T03:23:42.412Z,11.40
2022-09-26T03:27:48.573Z,11.40
2022-09-26T03:31:51.439Z,11.38
2022-09-26T03:35:54.832Z,11.34
2022-09-26T03:39:57.654Z,11.26
2022-09-26T03:44:03.281Z,11.21
2022-09-26T03:48:06.500Z,11.29
2022-09-26T03:52:11.942Z,11.26
2022-09-26T03:56:16.785Z,11.27
2022-09-26T04:00:21.111Z,11.20
2022-09-26T04:04:24.084Z,11.25
2022-09-26T04:08:27.071Z,11.24
2022-09-26T04:12:29.944Z,11.21
2022-09-26T04:16:36.343Z,11.22
2022-09-26T04:20:39.251Z,11.20
2022-09-26T04:24:42.076Z,11.19
2022-09-26T04:28:46.109Z,11.12
2022-09-26T04:32:50.405Z,11.11
2022-09-26T04:36:53.862Z,11.08
2022-09-26T04:40:57.127Z,11.07
2022-09-26T04:44:59.933Z,11.04
2022-09-26T04:49:05.110Z,11.04
2022-09-26T04:53:08.037Z,11.06
2022-09-26T04:57:11.306Z,11.06
2022-09-26T05:01:17.764Z,11.03
2022-09-26T05:05:22.833Z,11.04
2022-09-26T05:09:25.872Z,11.04
2022-09-26T05:13:29.263Z,11.04
2022-09-26T05:17:33.109Z,11.03
2022-09-26T05:21:37.450Z,11.06
2022-09-26T05:25:59.799Z,11.04
2022-09-26T05:30:02.904Z,11.08
2022-09-26T05:34:07.555Z,11.06
2022-09-26T05:38:11.869Z,11.04
2022-09-26T05:42:15.552Z,10.99
2022-09-26T05:46:18.506Z,11.03
2022-09-26T05:50:22.532Z,11.08
2022-09-26T05:54:26.669Z,11.13
2022-09-26T05:58:32.486Z,11.18
2022-09-26T06:02:35.522Z,11.23
2022-09-26T06:06:38.673Z,11.25
2022-09-26T06:10:43.155Z,11.27
2022-09-26T06:14:46.867Z,11.29
2022-09-26T06:18:52.707Z,11.31
2022-09-26T06:22:56.209Z,11.38
2022-09-26T06:27:00.455Z,11.38
2022-09-26T06:31:10.220Z,11.46
2022-09-26T06:35:13.366Z,11.49
2022-09-26T06:39:16.281Z,11.55
2022-09-26T06:43:20.975Z,11.57
2022-09-26T06:47:23.824Z,11.60
2022-09-26T06:51:26.883Z,11.58
2022-09-26T06:55:29.699Z,11.56
2022-09-26T06:59:35.513Z,11.43
2022-09-26T07:03:41.744Z,11.40
2022-09-26T07:07:49.285Z,11.42
2022-09-26T07:12:13.634Z,11.35
2022-09-26T07:16:16.877Z,11.19
2022-09-26T07:20:21.172Z,11.11
2022-09-26T07:24:24.053Z,11.02
2022-09-26T07:28:28.124Z,10.97
2022-09-26T07:32:32.322Z,10.92
2022-09-26T07:36:35.441Z,11.02
2022-09-26T07:40:38.625Z,11.03
2022-09-26T07:45:17.451Z,11.08
2022-09-26T07:49:23.431Z,11.09
2022-09-26T07:53:27.239Z,11.18
2022-09-26T07:57:35.310Z,11.17
2022-09-26T08:01:39.021Z,11.20
2022-09-26T08:05:43.638Z,11.12
2022-09-26T08:09:46.503Z,11.12
2022-09-26T08:13:50.218Z,11.11
2022-09-26T08:17:54.652Z,11.06
2022-09-26T08:21:59.185Z,11.12
2022-09-26T08:26:05.297Z,11.13
2022-09-26T08:30:10.773Z,11.23
2022-09-26T08:34:13.654Z,11.22
2022-09-26T08:38:17.997Z,11.19
2022-09-26T08:42:34.028Z,11.17
2022-09-26T08:46:53.157Z,11.19
2022-09-26T08:51:04.227Z,11.26
2022-09-26T08:55:16.038Z,11.24
2022-09-26T08:59:27.228Z,11.34
2022-09-26T09:03:34.234Z,11.40
2022-09-26T09:07:37.144Z,11.42
2022-09-26T09:12:08.702Z,11.41
2022-09-26T09:16:24.409Z,11.50
2022-09-26T09:20:46.573Z,11.58
2022-09-26T09:24:59.278Z,11.71
2022-09-26T09:29:19.134Z,11.92
2022-09-26T09:33:25.852Z,12.12
2022-09-26T09:37:40.409Z,12.24
2022-09-26T09:41:48.523Z,12.36
2022-09-26T09:45:54.710Z,12.37
2022-09-26T09:49:59.806Z,12.41
2022-09-26T09:54:17.742Z,12.52
2022-09-26T09:58:33.672Z,12.65
2022-09-26T10:02:44.275Z,12.73
2022-09-26T10:06:48.503Z,12.91
2022-09-26T10:11:02.952Z,12.98
2022-09-26T10:15:14.263Z,13.02
2022-09-26T10:19:18.497Z,13.16
2022-09-26T10:23:27.343Z,13.20
2022-09-26T10:27:38.137Z,13.32
2022-09-26T10:31:43.310Z,13.37
2022-09-26T10:35:47.802Z,13.45
2022-09-26T10:40:12.061Z,13.52
2022-09-26T10:44:27.006Z,13.52
2022-09-26T10:48:43.103Z,13.65
2022-09-26T10:52:51.610Z,14.02
2022-09-26T10:56:59.464Z,14.13
2022-09-26T11:01:02.666Z,14.04
2022-09-26T11:05:24.875Z,14.06
2022-09-26T11:09:29.666Z,14.32
2022-09-26T11:13:40.835Z,14.15
2022-09-26T11:17:47.984Z,14.35
2022-09-26T11:21:58.843Z,14.72
2022-09-26T11:26:12.417Z,14.92
2022-09-26T11:30:19.786Z,14.60
2022-09-26T11:34:28.948Z,14.70
2022-09-26T11:38:39.633Z,14.67
2022-09-26T11:42:59.894Z,14.23
2022-09-26T11:47:18.004Z,14.25
2022-09-26T11:51:37.477Z,13.89
2022-09-26T11:55:55.070Z,13.62
2022-09-26T12:00:13.189Z,13.33
2022-09-26T12:04:57.463Z,13.20
2022-09-26T12:09:19.311Z,13.01
2022-09-26T12:13:35.289Z,12.95
2022-09-26T12:17:50.949Z,13.04
2022-09-26T12:22:20.790Z,13.23
2022-09-26T12:26:35.164Z,13.42
2022-09-26T12:30:44.019Z,13.55
2022-09-26T12:35:19.206Z,13.57
2022-09-26T12:39:47.595Z,13.70
2022-09-26T12:44:12.794Z,13.55
2022-09-26T12:48:34.666Z,13.50
2022-09-26T12:53:10.295Z,13.34
2022-09-26T12:57:27.989Z,13.26
2022-09-26T13:01:48.482Z,13.24
2022-09-26T13:06:09.963Z,13.30
2022-09-26T13:10:48.275Z,13.40
2022-09-26T13:15:08.871Z,13.41
2022-09-26T13:19:24.490Z,13.41
2022-09-26T13:23:35.626Z,13.41
2022-09-26T13:27:45.480Z,13.42
2022-09-26T13:31:56.445Z,13.29
2022-09-26T13:36:03.268Z,13.22
2022-09-26T13:40:22.669Z,13.09
2022-09-26T13:44:43.663Z,12.98
2022-09-26T13:49:00.947Z,12.83
2022-09-26T13:53:15.727Z,12.77
2022-09-26T13:57:32.709Z,12.84
2022-09-26T14:01:37.107Z,12.92
2022-09-26T14:05:50.056Z,12.94
2022-09-26T14:09:59.068Z,13.06
2022-09-26T14:14:26.446Z,13.08
2022-09-26T14:18:47.294Z,13.09
2022-09-26T14:22:52.687Z,13.01
2022-09-26T14:27:04.659Z,13.13
2022-09-26T14:31:14.421Z,13.20
2022-09-26T14:35:20.797Z,13.22
2022-09-26T14:39:38.667Z,13.24
2022-09-26T14:43:42.221Z,13.28
2022-09-26T14:47:48.725Z,13.33
2022-09-26T14:51:59.638Z,13.32
2022-09-26T14:56:06.497Z,13.32
2022-09-26T15:00:35.999Z,13.31
2022-09-26T15:04:39.805Z,13.26
2022-09-26T15:08:43.895Z,13.22
2022-09-26T15:12:51.197Z,13.21
2022-09-26T15:16:56.672Z,13.22
2022-09-26T15:21:04.868Z,13.25
2022-09-26T15:25:22.902Z,13.24
2022-09-26T15:29:26.326Z,13.22
2022-09-26T15:33:29.253Z,13.20
2022-09-26T15:37:34.651Z,13.12
2022-09-26T15:42:03.297Z,13.04
2022-09-26T15:46:21.997Z,12.97
2022-09-26T15:50:29.548Z,12.91
2022-09-26T15:54:33.084Z,12.88
2022-09-26T15:58:43.666Z,12.77
2022-09-26T16:02:47.960Z,12.71
2022-09-26T16:07:00.100Z,12.59
2022-09-26T16:11:07.682Z,12.40
2022-09-26T16:15:19.235Z,12.16
2022-09-26T16:19:31.043Z,11.97
2022-09-26T16:23:46.276Z,11.77
2022-09-26T16:27:51.628Z,11.68
2022-09-26T16:31:55.739Z,11.68
2022-09-26T16:36:06.016Z,11.61
2022-09-26T16:40:19.212Z,11.61
2022-09-26T16:44:33.615Z,11.63
2022-09-26T16:48:41.469Z,11.69
2022-09-26T16:52:46.103Z,11.63
2022-09-26T16:56:51.507Z,11.64
2022-09-26T17:01:11.904Z,11.66
2022-09-26T17:05:19.416Z,11.63
2022-09-26T17:09:28.259Z,11.63
2022-09-26T17:13:35.254Z,11.67
2022-09-26T17:17:38.368Z,11.62
2022-09-26T17:21:42.659Z,11.60
2022-09-26T17:25:48.630Z,11.56
2022-09-26T17:29:54.284Z,11.50
2022-09-26T17:33:57.663Z,11.40
2022-09-26T17:38:01.952Z,11.36
2022-09-26T17:42:05.020Z,11.33
2022-09-26T17:46:15.131Z,11.30
2022-09-26T17:50:23.251Z,11.29
2022-09-26T17:54:35.945Z,11.29
2022-09-26T17:58:41.006Z,11.30
2022-09-26T18:02:45.655Z,11.29
2022-09-26T18:06:48.809Z,11.31
2022-09-26T18:10:56.924Z,11.30
2022-09-26T18:15:03.900Z,11.28
2022-09-26T18:19:07.918Z,11.29
2022-09-26T18:23:17.214Z,11.25
2022-09-26T18:27:22.266Z,11.24
2022-09-26T18:31:29.827Z,11.28
2022-09-26T18:35:33.129Z,11.27
2022-09-26T18:39:37.154Z,11.26
2022-09-26T18:43:42.539Z,11.24
2022-09-26T18:47:45.485Z,11.25
2022-09-26T18:51:48.188Z,11.25
2022-09-26T18:56:09.040Z,11.26
2022-09-26T19:00:13.841Z,11.26
2022-09-26T19:04:19.360Z,11.24
2022-09-26T19:08:32.949Z,11.22
2022-09-26T19:12:39.496Z,11.21
2022-09-26T19:16:44.687Z,11.11
2022-09-26T19:20:47.480Z,11.06
2022-09-26T19:24:53.403Z,11.03
2022-09-26T19:28:58.923Z,11.04
2022-09-26T19:33:03.185Z,11.01
2022-09-26T19:37:06.941Z,11.01
2022-09-26T19:41:09.871Z,10.99
2022-09-26T19:45:14.496Z,10.91
2022-09-26T19:49:19.955Z,10.94
2022-09-26T19:53:24.963Z,10.91
2022-09-26T19:57:27.804Z,10.81
2022-09-26T20:01:30.845Z,10.92
2022-09-26T20:05:35.284Z,10.82
2022-09-26T20:09:38.193Z,10.75
2022-09-26T20:13:58.701Z,10.78
2022-09-26T20:18:01.580Z,10.76
2022-09-26T20:22:07.857Z,10.69
2022-09-26T20:26:10.917Z,10.69
2022-09-26T20:30:33.686Z,10.73
2022-09-26T20:34:36.526Z,10.75
2022-09-26T20:38:45.549Z,10.76
2022-09-26T20:42:51.451Z,10.81
2022-09-26T20:46:58.089Z,10.85
2022-09-26T20:51:03.431Z,10.90
2022-09-26T20:55:15.879Z,10.91
2022-09-26T20:59:18.681Z,10.92
2022-09-26T21:03:25.375Z,10.90
2022-09-26T21:07:29.973Z,10.86
2022-09-26T21:11:34.023Z,10.86
2022-09-26T21:15:36.960Z,10.80
2022-09-26T21:19:39.910Z,10.71
2022-09-26T21:23:44.550Z,10.70
2022-09-26T21:27:50.622Z,10.75
2022-09-26T21:31:56.380Z,10.77
2022-09-26T21:35:59.436Z,10.78
2022-09-26T21:40:02.909Z,10.82
2022-09-26T21:44:12.953Z,10.85
2022-09-26T21:48:16.970Z,10.86
2022-09-26T21:52:24.945Z,10.87
2022-09-26T21:56:32.986Z,10.89
2022-09-26T22:00:37.266Z,10.90
2022-09-26T22:04:40.560Z,10.91
2022-09-26T22:08:44.076Z,10.85
2022-09-26T22:12:47.205Z,10.83
2022-09-26T22:16:51.307Z,10.79
2022-09-26T22:20:56.095Z,10.69
2022-09-26T22:25:03.408Z,10.67
2022-09-26T22:29:06.375Z,10.61
2022-09-26T22:33:11.495Z,10.54
2022-09-26T22:37:14.178Z,10.46
2022-09-26T22:41:17.270Z,10.41
2022-09-26T22:45:21.250Z,10.40
2022-09-26T22:49:25.413Z,10.31
2022-09-26T22:53:28.620Z,10.32
2022-09-26T22:57:32.765Z,10.28
2022-09-26T23:01:35.704Z,10.27
2022-09-26T23:05:41.017Z,10.27
2022-09-26T23:09:44.098Z,10.28
2022-09-26T23:13:47.775Z,10.28
2022-09-26T23:17:51.026Z,10.26
2022-09-26T23:21:55.471Z,10.24
2022-09-26T23:25:58.302Z,10.24
2022-09-26T23:30:01.018Z,10.26
2022-09-26T23:34:03.943Z,10.30
2022-09-26T23:38:08.164Z,10.27
2022-09-26T23:42:11.678Z,10.26
2022-09-26T23:46:15.191Z,10.26
2022-09-26T23:50:18.166Z,10.20
2022-09-26T23:54:22.238Z,10.16
2022-09-26T23:58:24.943Z,10.14
